Temp: 9.3°C   Baro: 1005.8mb
  Wind: 4.9mph   Dir: SSW (192°)
  Rain: 0.2mm (0.0mm/hr)
  Sun: 0W/m2  Humidity: 93%

Historic data

Bath Spa Weather Station Historical Data
Daily Summary for November 30, 2022 Units:  English    Metric   Both
Daily Weekly Monthly Yearly Custom
  High: Low: Average:
Temperature: 45.9 °F 37.2 °F 41.3 °F
Dew Point: 44.2 °F 35.6 °F 39.9 °F
Humidity: 96% 93% 95%
Wind Speed: 4mph 0mph 1.5mph
Wind Gust: 9mph - -
Wind- - East
Pressure: 30.40 in 30.20 in -
Precipitation: 0.00 in    
Historical Graphs
 
 
Tabular Data for November 30, 2022
Time Temperature Dew Point Pressure Wind Wind Speed Wind Gust Humidity Rainfall Rate (Hourly) solar
00:09 40.1 °F 39 °F 30.21 in East 2.1 mph 6 mph 96% 0.00 in 0 W/m2
00:14 40.2 °F 39.1 °F 30.21 in East 3.3 mph 6 mph 96% 0.00 in 0 W/m2
00:19 40.3 °F 39.2 °F 30.21 in East 1.2 mph 5 mph 96% 0.00 in 0 W/m2
00:24 40.2 °F 39.1 °F 30.21 in ESE 1.3 mph 5 mph 96% 0.00 in 0 W/m2
00:29 40.1 °F 39 °F 30.21 in ENE 2.4 mph 7 mph 96% 0.00 in 0 W/m2
00:34 40.1 °F 39 °F 30.21 in ENE 2.1 mph 6 mph 96% 0.00 in 0 W/m2
00:39 40.1 °F 39 °F 30.21 in ENE 3.8 mph 6 mph 96% 0.00 in 0 W/m2
00:44 40.1 °F 39 °F 30.21 in ENE 1.3 mph 5 mph 96% 0.00 in 0 W/m2
00:49 40.1 °F 39 °F 30.21 in East 2.1 mph 7 mph 96% 0.00 in 0 W/m2
00:54 40.2 °F 39.1 °F 30.21 in ESE 3 mph 7 mph 96% 0.00 in 0 W/m2
00:59 40.2 °F 39.1 °F 30.21 in ESE 2.8 mph 5 mph 96% 0.00 in 0 W/m2
01:04 40.2 °F 39.1 °F 30.21 in East 2.2 mph 6 mph 96% 0.00 in 0 W/m2
01:09 40.1 °F 39 °F 30.21 in ENE 1.6 mph 5 mph 96% 0.00 in 0 W/m2
01:14 40 °F 38.9 °F 30.20 in East 1.7 mph 6 mph 96% 0.00 in 0 W/m2
01:19 39.9 °F 38.8 °F 30.20 in East 3.7 mph 8 mph 96% 0.00 in 0 W/m2
01:24 39.9 °F 38.8 °F 30.20 in East 1.7 mph 7 mph 96% 0.00 in 0 W/m2
01:29 39.9 °F 38.8 °F 30.20 in ESE 1.1 mph 5 mph 96% 0.00 in 0 W/m2
01:34 39.8 °F 38.8 °F 30.20 in ESE 1 mph 3 mph 96% 0.00 in 0 W/m2
01:39 39.7 °F 38.7 °F 30.20 in ESE 0.6 mph 3 mph 96% 0.00 in 0 W/m2
01:44 39.7 °F 38.7 °F 30.20 in ESE 0.9 mph 4 mph 96% 0.00 in 0 W/m2
01:49 39.7 °F 38.7 °F 30.21 in ESE 0.7 mph 2 mph 96% 0.00 in 0 W/m2
01:54 39.7 °F 38.6 °F 30.21 in ESE 0.4 mph 2 mph 96% 0.00 in 0 W/m2
01:59 39.6 °F 38.5 °F 30.21 in ESE 1.3 mph 3 mph 96% 0.00 in 0 W/m2
02:04 39.7 °F 38.7 °F 30.21 in ESE 0.2 mph 2 mph 96% 0.00 in 0 W/m2
02:09 39.7 °F 38.7 °F 30.21 in ESE 1.3 mph 3 mph 96% 0.00 in 0 W/m2
02:14 39.7 °F 38.7 °F 30.21 in ESE 2 mph 4 mph 96% 0.00 in 0 W/m2
02:19 39.7 °F 38.7 °F 30.21 in ESE 0.5 mph 3 mph 96% 0.00 in 0 W/m2
02:24 39.7 °F 38.7 °F 30.21 in ESE 1.7 mph 4 mph 96% 0.00 in 0 W/m2
02:29 39.8 °F 38.7 °F 30.21 in ESE 1.8 mph 4 mph 96% 0.00 in 0 W/m2
02:34 39.9 °F 38.8 °F 30.22 in ESE 2.6 mph 5 mph 96% 0.00 in 0 W/m2
02:39 39.9 °F 38.8 °F 30.21 in ESE 2.4 mph 4 mph 96% 0.00 in 0 W/m2
02:44 39.9 °F 38.8 °F 30.21 in ESE 1.8 mph 4 mph 96% 0.00 in 0 W/m2
02:49 39.9 °F 38.8 °F 30.21 in ESE 0.4 mph 3 mph 96% 0.00 in 0 W/m2
02:53 39.9 °F 38.8 °F 30.21 in ESE 1.5 mph 3 mph 96% 0.00 in 0 W/m2
02:59 39.9 °F 38.8 °F 30.21 in ESE 0.5 mph 2 mph 96% 0.00 in 0 W/m2
03:04 39.9 °F 38.8 °F 30.21 in ESE 1.6 mph 4 mph 96% 0.00 in 0 W/m2
03:09 39.9 °F 38.8 °F 30.22 in ESE 1.3 mph 4 mph 96% 0.00 in 0 W/m2
03:14 39.9 °F 38.8 °F 30.22 in ESE 1.3 mph 3 mph 96% 0.00 in 0 W/m2
03:19 39.9 °F 38.8 °F 30.22 in ESE 0.4 mph 3 mph 96% 0.00 in 0 W/m2
03:24 39.9 °F 38.8 °F 30.22 in ESE 1.5 mph 3 mph 96% 0.00 in 0 W/m2
03:29 39.9 °F 38.8 °F 30.21 in ESE 2.7 mph 7 mph 96% 0.00 in 0 W/m2
03:34 40 °F 38.9 °F 30.21 in East 0.8 mph 4 mph 96% 0.00 in 0 W/m2
03:39 39.9 °F 38.8 °F 30.21 in East 0.8 mph 3 mph 96% 0.00 in 0 W/m2
03:44 39.9 °F 38.8 °F 30.22 in East 0.8 mph 3 mph 96% 0.00 in 0 W/m2
03:49 39.9 °F 38.8 °F 30.22 in East 0.4 mph 2 mph 96% 0.00 in 0 W/m2
03:54 39.9 °F 38.8 °F 30.22 in ESE 1.7 mph 3 mph 96% 0.00 in 0 W/m2
03:59 39.9 °F 38.8 °F 30.22 in ESE 2.4 mph 4 mph 96% 0.00 in 0 W/m2
04:04 40.1 °F 39 °F 30.22 in ESE 1 mph 4 mph 96% 0.00 in 0 W/m2
04:09 40.1 °F 39 °F 30.22 in ESE 1 mph 3 mph 96% 0.00 in 0 W/m2
04:14 40.1 °F 39 °F 30.22 in ESE 2.6 mph 8 mph 96% 0.00 in 0 W/m2
04:19 40.1 °F 39 °F 30.22 in ESE 2.2 mph 8 mph 96% 0.00 in 0 W/m2
04:24 40.1 °F 39 °F 30.22 in ENE 2.5 mph 6 mph 96% 0.00 in 0 W/m2
04:29 40.1 °F 39 °F 30.22 in East 0.5 mph 6 mph 96% 0.00 in 0 W/m2
04:34 40 °F 38.9 °F 30.22 in East 1.2 mph 5 mph 96% 0.00 in 0 W/m2
04:39 39.9 °F 38.8 °F 30.23 in East 0.4 mph 6 mph 96% 0.00 in 0 W/m2
04:44 39.9 °F 38.8 °F 30.23 in East 1.4 mph 5 mph 96% 0.00 in 0 W/m2
04:49 39.9 °F 38.8 °F 30.23 in East 1.3 mph 5 mph 96% 0.00 in 0 W/m2
04:54 39.8 °F 38.8 °F 30.23 in East 1.7 mph 6 mph 96% 0.00 in 0 W/m2
04:59 39.8 °F 38.7 °F 30.23 in East 2 mph 4 mph 96% 0.00 in 0 W/m2
05:04 39.8 °F 38.7 °F 30.23 in ESE 2.3 mph 5 mph 96% 0.00 in 0 W/m2
05:09 39.9 °F 38.8 °F 30.23 in ESE 1.5 mph 5 mph 96% 0.00 in 0 W/m2
05:14 39.9 °F 38.8 °F 30.23 in NE 2.7 mph 6 mph 96% 0.00 in 0 W/m2
05:19 39.8 °F 38.8 °F 30.23 in ESE 1.7 mph 5 mph 96% 0.00 in 0 W/m2
05:23 39.7 °F 38.7 °F 30.23 in ESE 3.2 mph 5 mph 96% 0.00 in 0 W/m2
05:29 39.7 °F 38.7 °F 30.23 in ESE 1.8 mph 3 mph 96% 0.00 in 0 W/m2
05:34 39.7 °F 38.7 °F 30.23 in ESE 1.6 mph 6 mph 96% 0.00 in 0 W/m2
05:39 39.7 °F 38.7 °F 30.23 in ESE 0.8 mph 4 mph 96% 0.00 in 0 W/m2
05:44 39.7 °F 38.7 °F 30.23 in ESE 1.3 mph 4 mph 96% 0.00 in 0 W/m2
05:49 39.7 °F 38.7 °F 30.23 in East 2.8 mph 7 mph 96% 0.00 in 0 W/m2
05:54 39.7 °F 38.7 °F 30.23 in East 1.6 mph 7 mph 96% 0.00 in 0 W/m2
05:59 39.7 °F 38.7 °F 30.23 in East 2 mph 7 mph 96% 0.00 in 0 W/m2
06:04 39.7 °F 38.7 °F 30.23 in ESE 2.2 mph 4 mph 96% 0.00 in 0 W/m2
06:09 39.7 °F 38.7 °F 30.23 in East 2.4 mph 6 mph 96% 0.00 in 0 W/m2
06:14 39.7 °F 38.7 °F 30.24 in East 2.5 mph 6 mph 96% 0.00 in 0 W/m2
06:19 39.7 °F 38.7 °F 30.24 in East 2.2 mph 5 mph 96% 0.00 in 0 W/m2
06:24 39.7 °F 38.7 °F 30.24 in ESE 2 mph 7 mph 96% 0.00 in 0 W/m2
06:29 39.7 °F 38.7 °F 30.24 in ESE 1.4 mph 4 mph 96% 0.00 in 0 W/m2
06:34 39.8 °F 38.7 °F 30.24 in SE 1.2 mph 4 mph 96% 0.00 in 0 W/m2
06:39 39.9 °F 38.8 °F 30.24 in SE 0.5 mph 3 mph 96% 0.00 in 0 W/m2
06:44 39.9 °F 38.8 °F 30.24 in ESE 2 mph 5 mph 96% 0.00 in 0 W/m2
06:49 39.9 °F 38.8 °F 30.24 in ESE 0.7 mph 3 mph 96% 0.00 in 0 W/m2
06:54 39.9 °F 38.8 °F 30.24 in ESE 1.1 mph 3 mph 96% 0.00 in 0 W/m2
06:59 39.8 °F 38.8 °F 30.24 in ESE 1.6 mph 5 mph 96% 0.00 in 0 W/m2
07:04 39.9 °F 38.8 °F 30.24 in East 1.5 mph 5 mph 96% 0.00 in 0 W/m2
07:09 40.2 °F 38.9 °F 30.24 in East 0.6 mph 4 mph 95% 0.00 in 0 W/m2
07:14 40.4 °F 39.2 °F 30.24 in East 1.1 mph 5 mph 95.4% 0.00 in 0 W/m2
07:19 40.2 °F 38.9 °F 30.24 in East 2 mph 5 mph 95% 0.00 in 0 W/m2
07:24 39.9 °F 38.7 °F 30.24 in East 3.1 mph 5 mph 95.4% 0.00 in 0 W/m2
07:29 39.7 °F 38.7 °F 30.24 in ESE 2.2 mph 7 mph 95.8% 0.00 in 0 W/m2
07:34 39.7 °F 38.5 °F 30.24 in SE 2.4 mph 6 mph 95% 0.00 in 0 W/m2
07:39 40.6 °F 39.4 °F 30.25 in ESE 2.1 mph 7 mph 95.2% 0.00 in 0 W/m2
07:43 41.2 °F 40 °F 30.25 in ESE 3.2 mph 9 mph 95.3% 0.00 in 0 W/m2
07:49 41.9 °F 40.7 °F 30.25 in East 2.1 mph 9 mph 95.4% 0.00 in 0 W/m2
07:54 42.1 °F 40.8 °F 30.25 in ENE 1.7 mph 5 mph 95% 0.00 in 0 W/m2
07:59 41.7 °F 40.4 °F 30.25 in ESE 2.9 mph 5 mph 95.2% 0.00 in 5 W/m2
08:04 40.8 °F 39.6 °F 30.26 in ESE 1.3 mph 4 mph 95% 0.00 in 7 W/m2
08:09 41.5 °F 40.2 °F 30.25 in ESE 2.4 mph 4 mph 95% 0.00 in 7 W/m2
08:14 41.2 °F 40 °F 30.26 in ESE 1.7 mph 5 mph 95.2% 0.00 in 9 W/m2
08:19 40.2 °F 38.9 °F 30.26 in SE 2.8 mph 5 mph 95% 0.00 in 7 W/m2
08:24 39.8 °F 38.6 °F 30.26 in SE 2.2 mph 5 mph 95% 0.00 in 7 W/m2
08:29 39.9 °F 38.7 °F 30.27 in SE 2.4 mph 7 mph 95% 0.00 in 9 W/m2
08:34 40.7 °F 39.4 °F 30.26 in East 3.7 mph 7 mph 95% 0.00 in 9 W/m2
08:39 41.3 °F 40 °F 30.26 in ESE 2.9 mph 7 mph 95% 0.00 in 11 W/m2
08:44 41.2 °F 39.9 °F 30.27 in East 2.8 mph 7 mph 95% 0.00 in 12 W/m2
08:49 41 °F 39.7 °F 30.27 in ESE 2.5 mph 7 mph 95% 0.00 in 11 W/m2
08:54 40.1 °F 38.9 °F 30.27 in ESE 2.8 mph 7 mph 95% 0.00 in 11 W/m2
08:59 39.7 °F 38.5 °F 30.27 in ESE 2.5 mph 6 mph 95% 0.00 in 19 W/m2
09:04 39.7 °F 38.5 °F 30.27 in ESE 1.2 mph 6 mph 95% 0.00 in 23 W/m2
09:09 39.7 °F 38.5 °F 30.27 in ESE 2 mph 4 mph 95% 0.00 in 26 W/m2
09:14 39.7 °F 38.4 °F 30.27 in East 2.8 mph 7 mph 95% 0.00 in 32 W/m2
09:19 39.7 °F 38.5 °F 30.27 in East 2.8 mph 8 mph 95% 0.00 in 32 W/m2
09:24 39.7 °F 38.5 °F 30.27 in East 2.8 mph 8 mph 95% 0.00 in 26 W/m2
09:29 39.7 °F 38.5 °F 30.27 in ESE 3.1 mph 8 mph 95% 0.00 in 35 W/m2
09:34 39.7 °F 38.5 °F 30.27 in SE 1.6 mph 7 mph 95% 0.00 in 37 W/m2
09:39 39.7 °F 38.5 °F 30.27 in East 2.5 mph 7 mph 95% 0.00 in 44 W/m2
09:44 39.7 °F 38.5 °F 30.28 in East 1.7 mph 8 mph 95% 0.00 in 56 W/m2
09:49 39.9 °F 38.7 °F 30.28 in East 2.8 mph 8 mph 95% 0.00 in 62 W/m2
09:54 40 °F 38.7 °F 30.28 in ESE 4 mph 8 mph 95% 0.00 in 60 W/m2
09:59 40.1 °F 38.8 °F 30.28 in ESE 3.3 mph 8 mph 95% 0.00 in 62 W/m2
10:04 40.2 °F 38.9 °F 30.28 in East 1.9 mph 7 mph 95% 0.00 in 67 W/m2
10:09 40.3 °F 39 °F 30.29 in East 2.6 mph 8 mph 95% 0.00 in 76 W/m2
10:14 40.4 °F 39.1 °F 30.29 in East 1.1 mph 4 mph 95% 0.00 in 74 W/m2
10:19 40.5 °F 39.3 °F 30.29 in ENE 2.7 mph 6 mph 95% 0.00 in 81 W/m2
10:24 40.7 °F 39.5 °F 30.29 in ENE 1.7 mph 5 mph 95% 0.00 in 86 W/m2
10:29 40.8 °F 39.6 °F 30.29 in ENE 2.1 mph 6 mph 95% 0.00 in 90 W/m2
10:34 41.1 °F 39.8 °F 30.29 in ENE 1.9 mph 5 mph 95% 0.00 in 93 W/m2
10:39 41.2 °F 39.9 °F 30.29 in East 2.9 mph 7 mph 95% 0.00 in 90 W/m2
10:44 41.4 °F 40.1 °F 30.29 in East 1.7 mph 7 mph 95% 0.00 in 91 W/m2
10:49 41.5 °F 40.2 °F 30.29 in ENE 3.2 mph 7 mph 95% 0.00 in 91 W/m2
10:54 41.5 °F 40.3 °F 30.29 in East 2.5 mph 7 mph 95% 0.00 in 74 W/m2
10:59 41.7 °F 40.5 °F 30.29 in East 3.3 mph 6 mph 95% 0.00 in 74 W/m2
11:04 41.7 °F 40.5 °F 30.29 in East 2.9 mph 5 mph 95% 0.00 in 76 W/m2
11:09 41.9 °F 40.7 °F 30.29 in East 1.9 mph 6 mph 95% 0.00 in 83 W/m2
11:14 42.1 °F 40.8 °F 30.30 in ENE 0.8 mph 5 mph 95% 0.00 in 74 W/m2
11:19 42.1 °F 40.8 °F 30.30 in ENE 1 mph 3 mph 95% 0.00 in 67 W/m2
11:24 42.1 °F 40.8 °F 30.30 in ENE 1.3 mph 3 mph 95% 0.00 in 67 W/m2
11:29 42.2 °F 40.9 °F 30.29 in ENE 1.6 mph 7 mph 95% 0.00 in 70 W/m2
11:34 42.3 °F 41 °F 30.29 in NE 1.3 mph 4 mph 95% 0.00 in 88 W/m2
11:39 42.4 °F 41.2 °F 30.29 in ESE 2.5 mph 5 mph 95% 0.00 in 102 W/m2
11:44 42.4 °F 41.2 °F 30.29 in ESE 1.1 mph 5 mph 95% 0.00 in 105 W/m2
11:49 42.4 °F 41.2 °F 30.29 in ESE 2.1 mph 5 mph 95% 0.00 in 102 W/m2
11:54 42.5 °F 41.3 °F 30.29 in East 2.5 mph 7 mph 95% 0.00 in 107 W/m2
11:59 42.6 °F 41.4 °F 30.29 in East 2 mph 7 mph 95% 0.00 in 97 W/m2
12:04 42.7 °F 41.5 °F 30.29 in East 2 mph 5 mph 95% 0.00 in 74 W/m2
12:09 43 °F 41.7 °F 30.29 in East 2.5 mph 7 mph 95% 0.00 in 86 W/m2
12:14 43 °F 41.7 °F 30.29 in East 3.1 mph 6 mph 95% 0.00 in 88 W/m2
12:19 43.2 °F 41.9 °F 30.29 in ENE 2.5 mph 7 mph 95% 0.00 in 97 W/m2
12:24 43.2 °F 41.9 °F 30.29 in East 3 mph 6 mph 95% 0.00 in 114 W/m2
12:29 43.2 °F 41.9 °F 30.29 in ENE 3.1 mph 8 mph 95% 0.00 in 123 W/m2
12:34 43.2 °F 41.9 °F 30.29 in ESE 2.4 mph 4 mph 95% 0.00 in 104 W/m2
12:39 43.2 °F 42 °F 30.29 in ESE 1.6 mph 5 mph 95% 0.00 in 90 W/m2
12:44 43.3 °F 42.1 °F 30.29 in ESE 2.2 mph 4 mph 95% 0.00 in 56 W/m2
12:49 43.3 °F 42.1 °F 30.29 in ENE 3.8 mph 7 mph 95% 0.00 in 60 W/m2
12:54 43.5 °F 42.3 °F 30.29 in ENE 2 mph 7 mph 95% 0.00 in 72 W/m2
12:59 43.7 °F 42.4 °F 30.29 in East 2.5 mph 5 mph 95% 0.00 in 40 W/m2
13:04 43.7 °F 42.4 °F 30.30 in East 2 mph 5 mph 95% 0.00 in 62 W/m2
13:09 43.9 °F 42.6 °F 30.30 in ESE 2 mph 5 mph 95% 0.00 in 62 W/m2
13:14 44 °F 42.7 °F 30.30 in ESE 1.9 mph 4 mph 95% 0.00 in 58 W/m2
13:19 44.2 °F 42.9 °F 30.30 in ESE 2.2 mph 4 mph 95% 0.00 in 65 W/m2
13:24 44.2 °F 43 °F 30.30 in ESE 1.2 mph 4 mph 95% 0.00 in 62 W/m2
13:29 44.4 °F 43 °F 30.30 in ESE 1.7 mph 4 mph 94.4% 0.00 in 56 W/m2
13:34 44.6 °F 43.2 °F 30.30 in ESE 0.7 mph 4 mph 94.8% 0.00 in 54 W/m2
13:39 44.8 °F 43.5 °F 30.30 in ESE 1.1 mph 3 mph 95% 0.00 in 54 W/m2
13:44 44.9 °F 43.5 °F 30.30 in ESE 0.9 mph 3 mph 94.6% 0.00 in 53 W/m2
13:49 45 °F 43.3 °F 30.30 in ESE 1.5 mph 2 mph 94% 0.00 in 51 W/m2
13:54 45.1 °F 43.5 °F 30.30 in ESE 1 mph 3 mph 94% 0.00 in 46 W/m2
13:59 45.2 °F 43.6 °F 30.30 in ESE 0.5 mph 2 mph 94% 0.00 in 40 W/m2
14:04 45.3 °F 43.7 °F 30.30 in ESE 1.3 mph 3 mph 94% 0.00 in 44 W/m2
14:09 45.3 °F 43.7 °F 30.30 in East 2.9 mph 6 mph 94% 0.00 in 44 W/m2
14:14 45.5 °F 43.9 °F 30.30 in ENE 2.5 mph 6 mph 94% 0.00 in 44 W/m2
14:19 45.5 °F 43.9 °F 30.29 in NE 1.6 mph 4 mph 94% 0.00 in 42 W/m2
14:24 45.7 °F 44.1 °F 30.29 in NE 1.6 mph 3 mph 94% 0.00 in 47 W/m2
14:29 45.7 °F 44.1 °F 30.29 in NE 1.8 mph 4 mph 94% 0.00 in 47 W/m2
14:34 45.7 °F 44.1 °F 30.29 in East 2.1 mph 6 mph 94% 0.00 in 51 W/m2
14:39 45.7 °F 44.1 °F 30.29 in ENE 2.4 mph 5 mph 94% 0.00 in 53 W/m2
14:44 45.7 °F 44.1 °F 30.29 in ENE 1.5 mph 4 mph 94% 0.00 in 49 W/m2
14:49 45.9 °F 44.2 °F 30.29 in ENE 1.3 mph 5 mph 94% 0.00 in 49 W/m2
14:54 45.9 °F 44.2 °F 30.29 in NE 2.6 mph 6 mph 94% 0.00 in 51 W/m2
14:58 45.9 °F 44.2 °F 30.29 in ENE 1.3 mph 4 mph 94% 0.00 in 44 W/m2
15:04 45.7 °F 44.1 °F 30.29 in ENE 2.9 mph 7 mph 94% 0.00 in 40 W/m2
15:09 45.7 °F 44.1 °F 30.29 in ENE 1.6 mph 5 mph 94% 0.00 in 35 W/m2
15:14 45.6 °F 44 °F 30.30 in ENE 1.5 mph 8 mph 94% 0.00 in 32 W/m2
15:19 45.5 °F 43.7 °F 30.30 in NE 2.1 mph 6 mph 93.6% 0.00 in 32 W/m2
15:24 45.3 °F 43.3 °F 30.30 in ENE 2.4 mph 6 mph 93% 0.00 in 26 W/m2
15:29 45.3 °F 43.3 °F 30.30 in ENE 2.9 mph 6 mph 93% 0.00 in 21 W/m2
15:34 45.2 °F 43.2 °F 30.30 in ENE 1.8 mph 5 mph 93% 0.00 in 18 W/m2
15:39 45.1 °F 43.2 °F 30.30 in ENE 3.1 mph 7 mph 93% 0.00 in 16 W/m2
15:44 45.1 °F 43.2 °F 30.30 in East 1.9 mph 5 mph 93% 0.00 in 14 W/m2
15:49 45 °F 43 °F 30.30 in ENE 2.6 mph 8 mph 93% 0.00 in 12 W/m2
15:54 45 °F 43 °F 30.30 in NE 2 mph 4 mph 93% 0.00 in 11 W/m2
15:59 44.8 °F 42.8 °F 30.30 in ENE 2.2 mph 5 mph 93% 0.00 in 9 W/m2
16:04 44.7 °F 42.7 °F 30.30 in ESE 2.2 mph 5 mph 93% 0.00 in 7 W/m2
16:09 44.6 °F 42.6 °F 30.30 in ESE 1.9 mph 5 mph 93% 0.00 in 5 W/m2
16:14 44.4 °F 42.4 °F 30.30 in East 1.7 mph 6 mph 93% 0.00 in 5 W/m2
16:19 44.4 °F 42.4 °F 30.30 in ENE 1.3 mph 3 mph 93% 0.00 in 0 W/m2
16:24 44.4 °F 42.4 °F 30.31 in East 1.9 mph 5 mph 93% 0.00 in 0 W/m2
16:29 44.4 °F 42.4 °F 30.31 in ESE 1.7 mph 5 mph 93% 0.00 in 0 W/m2
16:34 44.2 °F 42.3 °F 30.31 in ESE 1.2 mph 4 mph 93% 0.00 in 0 W/m2
16:39 44.2 °F 42.3 °F 30.31 in ESE 1.2 mph 4 mph 93% 0.00 in 0 W/m2
16:44 44.2 °F 42.3 °F 30.31 in ESE 0.8 mph 4 mph 93% 0.00 in 0 W/m2
16:49 44.1 °F 42.1 °F 30.32 in SE 0.9 mph 2 mph 93% 0.00 in 0 W/m2
16:54 44.1 °F 42.1 °F 30.32 in SE 0.7 mph 4 mph 93% 0.00 in 0 W/m2
16:59 43.9 °F 41.9 °F 30.32 in SE 0.8 mph 3 mph 93% 0.00 in 0 W/m2
17:04 43.8 °F 41.8 °F 30.32 in SE 2.4 mph 4 mph 93% 0.00 in 0 W/m2
17:09 43.5 °F 41.7 °F 30.32 in SE 1.1 mph 4 mph 93% 0.00 in 0 W/m2
17:14 43.3 °F 41.5 °F 30.32 in SE 1.3 mph 4 mph 93% 0.00 in 0 W/m2
17:19 43.2 °F 41.4 °F 30.32 in SE 1.2 mph 3 mph 93% 0.00 in 0 W/m2
17:24 43.1 °F 41.3 °F 30.32 in SE 0.6 mph 3 mph 93% 0.00 in 0 W/m2
17:29 43 °F 41.2 °F 30.32 in SE 0.7 mph 3 mph 93% 0.00 in 0 W/m2
17:34 43 °F 41.2 °F 30.33 in SE 0.5 mph 3 mph 93% 0.00 in 0 W/m2
17:39 42.7 °F 40.9 °F 30.33 in SE 0.2 mph 2 mph 93% 0.00 in 0 W/m2
17:44 42.6 °F 40.8 °F 30.32 in SE 0.7 mph 3 mph 93% 0.00 in 0 W/m2
17:49 42.5 °F 40.7 °F 30.33 in SE 0.9 mph 2 mph 93% 0.00 in 0 W/m2
17:54 42.4 °F 40.6 °F 30.33 in SE 0.9 mph 4 mph 93% 0.00 in 0 W/m2
17:59 42.5 °F 40.7 °F 30.33 in SE 1.3 mph 4 mph 93% 0.00 in 0 W/m2
18:04 42.6 °F 40.8 °F 30.34 in SE 1.4 mph 3 mph 93% 0.00 in 0 W/m2
18:09 42.6 °F 40.8 °F 30.34 in SE 1.2 mph 3 mph 93% 0.00 in 0 W/m2
18:14 42.8 °F 41.2 °F 30.34 in ESE 1.2 mph 3 mph 93.8% 0.00 in 0 W/m2
18:19 43 °F 41.4 °F 30.34 in ESE 2 mph 4 mph 94% 0.00 in 0 W/m2
18:24 43.2 °F 41.5 °F 30.34 in ESE 2.8 mph 5 mph 94% 0.00 in 0 W/m2
18:29 43.2 °F 41.5 °F 30.34 in ESE 1.6 mph 4 mph 94% 0.00 in 0 W/m2
18:34 43.2 °F 41.5 °F 30.35 in ESE 1.1 mph 3 mph 94% 0.00 in 0 W/m2
18:39 43.3 °F 41.6 °F 30.35 in ESE 2 mph 4 mph 94% 0.00 in 0 W/m2
18:44 43.3 °F 41.7 °F 30.35 in ESE 1.5 mph 5 mph 94% 0.00 in 0 W/m2
18:49 43.3 °F 41.7 °F 30.35 in East 1.5 mph 5 mph 94% 0.00 in 0 W/m2
18:54 43.3 °F 41.7 °F 30.36 in NE 2.3 mph 4 mph 94% 0.00 in 0 W/m2
18:59 43.5 °F 41.9 °F 30.36 in NE 1.8 mph 3 mph 94% 0.00 in 0 W/m2
19:04 43.5 °F 41.9 °F 30.36 in ENE 0.9 mph 3 mph 94% 0.00 in 0 W/m2
19:09 43.5 °F 41.9 °F 30.36 in ENE 1.5 mph 3 mph 94% 0.00 in 0 W/m2
19:14 43.5 °F 41.9 °F 30.36 in ENE 0.2 mph 3 mph 94% 0.00 in 0 W/m2
19:19 43.5 °F 41.9 °F 30.36 in ENE 0.2 mph 2 mph 94% 0.00 in 0 W/m2
19:24 43.5 °F 41.9 °F 30.36 in Calm     94% 0.00 in 0 W/m2
19:29 43.4 °F 41.8 °F 30.36 in Calm     94% 0.00 in 0 W/m2
19:34 43.2 °F 41.5 °F 30.36 in Calm     94% 0.00 in 0 W/m2
19:39 43 °F 41.4 °F 30.36 in Calm     94% 0.00 in 0 W/m2
19:44 42.6 °F 41 °F 30.37 in Calm     94% 0.00 in 0 W/m2
19:49 42.6 °F 41 °F 30.37 in Calm     94% 0.00 in 0 W/m2
19:54 42.3 °F 40.7 °F 30.37 in Calm     94% 0.00 in 0 W/m2
19:59 41.9 °F 40.3 °F 30.37 in Calm     94% 0.00 in 0 W/m2
20:04 41.5 °F 39.8 °F 30.37 in Calm     94% 0.00 in 0 W/m2
20:09 41.3 °F 39.6 °F 30.38 in Calm     94% 0.00 in 0 W/m2
20:14 40.9 °F 39.3 °F 30.38 in Calm     94% 0.00 in 0 W/m2
20:19 40.6 °F 39 °F 30.38 in Calm     94% 0.00 in 0 W/m2
20:24 40.5 °F 38.8 °F 30.38 in Calm     94% 0.00 in 0 W/m2
20:29 40.4 °F 38.7 °F 30.38 in Calm     94% 0.00 in 0 W/m2
20:34 40 °F 38.4 °F 30.38 in Calm     94% 0.00 in 0 W/m2
20:39 39.8 °F 38.2 °F 30.38 in Calm     94% 0.00 in 0 W/m2
20:44 39.7 °F 38.1 °F 30.38 in Calm     94% 0.00 in 0 W/m2
20:49 39.5 °F 37.8 °F 30.39 in Calm     94% 0.00 in 0 W/m2
20:54 39.3 °F 37.7 °F 30.39 in Calm     94% 0.00 in 0 W/m2
20:59 39.1 °F 37.5 °F 30.39 in Calm     94% 0.00 in 0 W/m2
21:04 39 °F 37.3 °F 30.39 in Calm     94% 0.00 in 0 W/m2
21:09 38.8 °F 37.2 °F 30.39 in Calm     94% 0.00 in 0 W/m2
21:14 38.7 °F 37 °F 30.39 in Calm     94% 0.00 in 0 W/m2
21:19 38.6 °F 37 °F 30.39 in Calm     94% 0.00 in 0 W/m2
21:24 38.5 °F 36.9 °F 30.39 in Calm     94% 0.00 in 0 W/m2
21:29 38.5 °F 36.9 °F 30.39 in Calm     94% 0.00 in 0 W/m2
21:34 38.1 °F 36.5 °F 30.39 in Calm     94% 0.00 in 0 W/m2
21:39 37.8 °F 36.1 °F 30.40 in Calm     94% 0.00 in 0 W/m2
21:44 37.8 °F 36.1 °F 30.40 in Calm     94% 0.00 in 0 W/m2
21:49 37.8 °F 36.1 °F 30.40 in Calm     94% 0.00 in 0 W/m2
21:54 37.6 °F 36 °F 30.40 in Calm     94% 0.00 in 0 W/m2
21:59 37.6 °F 36 °F 30.40 in Calm     94% 0.00 in 0 W/m2
22:04 37.6 °F 36 °F 30.40 in Calm     94% 0.00 in 0 W/m2
22:09 37.6 °F 36 °F 30.40 in Calm     94% 0.00 in 0 W/m2
22:14 37.4 °F 35.8 °F 30.40 in Calm     94% 0.00 in 0 W/m2
22:19 37.2 °F 35.6 °F 30.40 in Calm     94% 0.00 in 0 W/m2
22:24 37.4 °F 35.8 °F 30.40 in Calm     94% 0.00 in 0 W/m2
22:29 37.4 °F 35.8 °F 30.40 in Calm     94% 0.00 in 0 W/m2
22:34 37.7 °F 36.1 °F 30.40 in ENE 0.4 mph 3 mph 94% 0.00 in 0 W/m2
22:39 38.5 °F 36.9 °F 30.40 in East 2 mph 4 mph 94% 0.00 in 0 W/m2
22:44 39 °F 37.4 °F 30.40 in East 0.9 mph 4 mph 94% 0.00 in 0 W/m2
22:49 39 °F 37.4 °F 30.40 in Calm   2 mph 94% 0.00 in 0 W/m2
22:54 38.7 °F 37.1 °F 30.40 in East 0.8 mph 2 mph 94% 0.00 in 0 W/m2
22:59 38.3 °F 36.7 °F 30.40 in East 0.4 mph 3 mph 94% 0.00 in 0 W/m2
23:04 38.5 °F 36.9 °F 30.40 in East 0.5 mph 3 mph 94% 0.00 in 0 W/m2
23:09 38.7 °F 37.1 °F 30.40 in East 0.8 mph 3 mph 94% 0.00 in 0 W/m2
23:14 38.8 °F 37.2 °F 30.40 in East 0.4 mph 3 mph 94% 0.00 in 0 W/m2
23:19 38.8 °F 37.2 °F 30.40 in ESE 0.8 mph 2 mph 94% 0.00 in 0 W/m2
23:24 38.6 °F 37.1 °F 30.40 in ESE 1.8 mph 3 mph 94.4% 0.00 in 0 W/m2
23:29 38.2 °F 36.6 °F 30.40 in ESE 0.8 mph 3 mph 94% 0.00 in 0 W/m2
23:34 38.1 °F 36.9 °F 30.40 in ESE 0.8 mph 2 mph 95% 0.00 in 0 W/m2
23:39 38 °F 36.8 °F 30.40 in Calm   1 mph 95% 0.00 in 0 W/m2
23:44 38.1 °F 36.9 °F 30.40 in ESE 1.1 mph 2 mph 95% 0.00 in 0 W/m2
23:48 38.2 °F 36.9 °F 30.40 in Calm   2 mph 95% 0.00 in 0 W/m2
23:54 38.3 °F 37 °F 30.40 in ESE 1.3 mph 4 mph 95% 0.00 in 0 W/m2
23:59 38.4 °F 37.1 °F 30.40 in East 3.7 mph 7 mph 95% 0.00 in 0 W/m2
Bath Spa Weather
Compliments of Weather Underground - 2 mb